sensor_id;sensor_type;location;lat;lon;timestamp;P1;durP1;ratioP1;P2;durP2;ratioP2
35803;SDS011;21924;51.934;7.414;2024-01-11T00:05:30;43.40;;;20.37;;
35803;SDS011;21924;51.934;7.414;2024-01-11T00:59:50;44.77;;;22.30;;
35803;SDS011;21924;51.934;7.414;2024-01-11T01:21:00;50.40;;;21.70;;
35803;SDS011;21924;51.934;7.414;2024-01-11T01:23:48;50.53;;;19.57;;
35803;SDS011;21924;51.934;7.414;2024-01-11T01:26:47;42.57;;;20.57;;
35803;SDS011;21924;51.934;7.414;2024-01-11T01:37:12;39.23;;;19.87;;
35803;SDS011;21924;51.934;7.414;2024-01-11T01:40:51;47.00;;;19.60;;
35803;SDS011;21924;51.934;7.414;2024-01-11T02:19:55;41.73;;;21.03;;
35803;SDS011;21924;51.934;7.414;2024-01-11T02:33:55;43.30;;;21.37;;
35803;SDS011;21924;51.934;7.414;2024-01-11T02:36:55;51.37;;;23.10;;
35803;SDS011;21924;51.934;7.414;2024-01-11T02:53:52;52.40;;;23.27;;
35803;SDS011;21924;51.934;7.414;2024-01-11T02:59:57;41.47;;;19.17;;
35803;SDS011;21924;51.934;7.414;2024-01-11T03:02:57;39.40;;;20.07;;
35803;SDS011;21924;51.934;7.414;2024-01-11T03:05:59;55.63;;;20.77;;
35803;SDS011;21924;51.934;7.414;2024-01-11T03:34:01;44.07;;;20.97;;
35803;SDS011;21924;51.934;7.414;2024-01-11T03:44:01;79.40;;;29.87;;
35803;SDS011;21924;51.934;7.414;2024-01-11T03:47:01;56.00;;;23.67;;
35803;SDS011;21924;51.934;7.414;2024-01-11T03:50:01;47.00;;;22.57;;
35803;SDS011;21924;51.934;7.414;2024-01-11T03:53:02;43.77;;;21.37;;
35803;SDS011;21924;51.934;7.414;2024-01-11T03:56:07;45.37;;;18.73;;
35803;SDS011;21924;51.934;7.414;2024-01-11T03:59:03;46.30;;;21.90;;
35803;SDS011;21924;51.934;7.414;2024-01-11T04:05:05;68.17;;;23.37;;
35803;SDS011;21924;51.934;7.414;2024-01-11T04:15:14;61.60;;;25.27;;
35803;SDS011;21924;51.934;7.414;2024-01-11T04:18:08;67.82;;;27.27;;
35803;SDS011;21924;51.934;7.414;2024-01-11T04:20:57;54.20;;;24.83;;
35803;SDS011;21924;51.934;7.414;2024-01-11T04:31:54;41.20;;;19.90;;
35803;SDS011;21924;51.934;7.414;2024-01-11T04:35:06;40.83;;;22.23;;
35803;SDS011;21924;51.934;7.414;2024-01-11T04:37:51;55.67;;;23.27;;
35803;SDS011;21924;51.934;7.414;2024-01-11T04:55:46;30.37;;;18.70;;
35803;SDS011;21924;51.934;7.414;2024-01-11T04:58:35;45.50;;;20.07;;
35803;SDS011;21924;51.934;7.414;2024-01-11T05:01:45;41.13;;;18.63;;
35803;SDS011;21924;51.934;7.414;2024-01-11T05:04:36;36.80;;;19.53;;
35803;SDS011;21924;51.934;7.414;2024-01-11T05:15:00;40.83;;;20.40;;
35803;SDS011;21924;51.934;7.414;2024-01-11T05:18:00;45.20;;;21.17;;
35803;SDS011;21924;51.934;7.414;2024-01-11T05:20:50;41.37;;;19.63;;
35803;SDS011;21924;51.934;7.414;2024-01-11T05:23:52;42.03;;;21.17;;
35803;SDS011;21924;51.934;7.414;2024-01-11T05:26:45;41.10;;;18.50;;
35803;SDS011;21924;51.934;7.414;2024-01-11T05:29:35;39.20;;;19.83;;
35803;SDS011;21924;51.934;7.414;2024-01-11T05:36:12;39.77;;;19.33;;
35803;SDS011;21924;51.934;7.414;2024-01-11T05:42:43;44.33;;;20.20;;
35803;SDS011;21924;51.934;7.414;2024-01-11T05:45:36;38.00;;;19.97;;
35803;SDS011;21924;51.934;7.414;2024-01-11T05:48:32;56.33;;;22.33;;
35803;SDS011;21924;51.934;7.414;2024-01-11T05:51:18;55.77;;;19.70;;
35803;SDS011;21924;51.934;7.414;2024-01-11T05:57:19;37.60;;;19.87;;
35803;SDS011;21924;51.934;7.414;2024-01-11T06:04:05;50.07;;;20.80;;
35803;SDS011;21924;51.934;7.414;2024-01-11T06:17:18;46.50;;;19.97;;
35803;SDS011;21924;51.934;7.414;2024-01-11T06:20:17;36.80;;;18.87;;
35803;SDS011;21924;51.934;7.414;2024-01-11T06:23:17;50.40;;;23.10;;
35803;SDS011;21924;51.934;7.414;2024-01-11T06:36:56;54.87;;;20.90;;
35803;SDS011;21924;51.934;7.414;2024-01-11T06:39:59;36.90;;;18.27;;
35803;SDS011;21924;51.934;7.414;2024-01-11T06:46:27;33.80;;;20.43;;
35803;SDS011;21924;51.934;7.414;2024-01-11T06:52:55;44.63;;;20.17;;
35803;SDS011;21924;51.934;7.414;2024-01-11T06:58:59;42.37;;;22.27;;
35803;SDS011;21924;51.934;7.414;2024-01-11T07:01:51;46.73;;;21.47;;
35803;SDS011;21924;51.934;7.414;2024-01-11T07:04:36;41.07;;;20.60;;
35803;SDS011;21924;51.934;7.414;2024-01-11T07:07:28;39.77;;;19.77;;
35803;SDS011;21924;51.934;7.414;2024-01-11T07:10:12;40.77;;;21.53;;
35803;SDS011;21924;51.934;7.414;2024-01-11T07:12:57;46.07;;;20.13;;
35803;SDS011;21924;51.934;7.414;2024-01-11T07:15:42;45.27;;;20.60;;
35803;SDS011;21924;51.934;7.414;2024-01-11T07:18:28;38.35;;;21.33;;
35803;SDS011;21924;51.934;7.414;2024-01-11T07:21:20;43.45;;;21.23;;
35803;SDS011;21924;51.934;7.414;2024-01-11T07:24:25;36.43;;;19.40;;
35803;SDS011;21924;51.934;7.414;2024-01-11T07:27:10;35.13;;;20.50;;
35803;SDS011;21924;51.934;7.414;2024-01-11T07:29:55;32.17;;;19.50;;
35803;SDS011;21924;51.934;7.414;2024-01-11T07:32:40;44.35;;;19.85;;
35803;SDS011;21924;51.934;7.414;2024-01-11T07:35:24;46.17;;;21.17;;
35803;SDS011;21924;51.934;7.414;2024-01-11T07:38:09;41.87;;;20.43;;
35803;SDS011;21924;51.934;7.414;2024-01-11T07:40:54;54.57;;;20.93;;
35803;SDS011;21924;51.934;7.414;2024-01-11T07:43:39;27.38;;;15.05;;
35803;SDS011;21924;51.934;7.414;2024-01-11T07:46:23;47.57;;;21.27;;
35803;SDS011;21924;51.934;7.414;2024-01-11T07:49:09;43.20;;;19.93;;
35803;SDS011;21924;51.934;7.414;2024-01-11T07:51:54;49.58;;;22.45;;
35803;SDS011;21924;51.934;7.414;2024-01-11T07:54:38;38.27;;;20.77;;
35803;SDS011;21924;51.934;7.414;2024-01-11T07:57:22;45.90;;;19.27;;
35803;SDS011;21924;51.934;7.414;2024-01-11T08:00:07;43.80;;;20.60;;
35803;SDS011;21924;51.934;7.414;2024-01-11T08:02:53;52.07;;;22.80;;
35803;SDS011;21924;51.934;7.414;2024-01-11T08:08:23;42.63;;;21.50;;
35803;SDS011;21924;51.934;7.414;2024-01-11T08:11:07;43.63;;;20.80;;
35803;SDS011;21924;51.934;7.414;2024-01-11T08:13:53;48.40;;;22.07;;
35803;SDS011;21924;51.934;7.414;2024-01-11T08:16:38;48.97;;;21.00;;
35803;SDS011;21924;51.934;7.414;2024-01-11T08:19:23;45.00;;;22.60;;
35803;SDS011;21924;51.934;7.414;2024-01-11T08:22:16;47.10;;;22.93;;
35803;SDS011;21924;51.934;7.414;2024-01-11T08:25:01;45.33;;;21.63;;
35803;SDS011;21924;51.934;7.414;2024-01-11T08:27:48;65.97;;;22.83;;
35803;SDS011;21924;51.934;7.414;2024-01-11T08:30:32;47.70;;;21.00;;
35803;SDS011;21924;51.934;7.414;2024-01-11T08:33:19;46.23;;;21.27;;
35803;SDS011;21924;51.934;7.414;2024-01-11T08:36:04;41.60;;;22.27;;
35803;SDS011;21924;51.934;7.414;2024-01-11T08:38:51;31.20;;;18.75;;
35803;SDS011;21924;51.934;7.414;2024-01-11T08:41:39;41.93;;;20.17;;
35803;SDS011;21924;51.934;7.414;2024-01-11T08:44:23;47.23;;;20.70;;
35803;SDS011;21924;51.934;7.414;2024-01-11T08:47:08;44.90;;;22.20;;
35803;SDS011;21924;51.934;7.414;2024-01-11T08:49:53;55.83;;;23.43;;
35803;SDS011;21924;51.934;7.414;2024-01-11T08:53:06;44.30;;;21.67;;
35803;SDS011;21924;51.934;7.414;2024-01-11T08:55:51;41.47;;;20.27;;
35803;SDS011;21924;51.934;7.414;2024-01-11T08:58:39;49.97;;;21.95;;
35803;SDS011;21924;51.934;7.414;2024-01-11T09:01:32;52.42;;;21.67;;
35803;SDS011;21924;51.934;7.414;2024-01-11T09:04:19;47.00;;;23.17;;
35803;SDS011;21924;51.934;7.414;2024-01-11T09:07:03;50.07;;;22.40;;
35803;SDS011;21924;51.934;7.414;2024-01-11T09:09:47;42.00;;;22.20;;
35803;SDS011;21924;51.934;7.414;2024-01-11T09:12:39;45.10;;;20.87;;
35803;SDS011;21924;51.934;7.414;2024-01-11T09:15:23;51.77;;;24.83;;
35803;SDS011;21924;51.934;7.414;2024-01-11T09:18:08;50.93;;;21.27;;
35803;SDS011;21924;51.934;7.414;2024-01-11T09:20:52;55.80;;;23.20;;
35803;SDS011;21924;51.934;7.414;2024-01-11T09:23:37;46.27;;;21.93;;
35803;SDS011;21924;51.934;7.414;2024-01-11T09:26:27;53.43;;;22.17;;
35803;SDS011;21924;51.934;7.414;2024-01-11T09:29:21;55.20;;;22.87;;
35803;SDS011;21924;51.934;7.414;2024-01-11T09:32:05;48.90;;;20.53;;
35803;SDS011;21924;51.934;7.414;2024-01-11T09:34:49;53.13;;;20.70;;
35803;SDS011;21924;51.934;7.414;2024-01-11T09:37:34;42.13;;;20.97;;
35803;SDS011;21924;51.934;7.414;2024-01-11T09:43:33;37.07;;;19.37;;
35803;SDS011;21924;51.934;7.414;2024-01-11T09:49:57;44.47;;;19.43;;
35803;SDS011;21924;51.934;7.414;2024-01-11T09:56:15;44.80;;;21.63;;
35803;SDS011;21924;51.934;7.414;2024-01-11T09:59:00;39.07;;;20.50;;
35803;SDS011;21924;51.934;7.414;2024-01-11T10:01:45;38.50;;;19.80;;
35803;SDS011;21924;51.934;7.414;2024-01-11T10:04:44;47.53;;;20.57;;
35803;SDS011;21924;51.934;7.414;2024-01-11T10:07:30;42.17;;;20.23;;
35803;SDS011;21924;51.934;7.414;2024-01-11T10:10:16;44.93;;;20.67;;
35803;SDS011;21924;51.934;7.414;2024-01-11T10:13:09;35.27;;;19.33;;
35803;SDS011;21924;51.934;7.414;2024-01-11T10:16:07;39.20;;;21.40;;
35803;SDS011;21924;51.934;7.414;2024-01-11T10:19:00;37.00;;;18.43;;
35803;SDS011;21924;51.934;7.414;2024-01-11T10:21:44;35.07;;;17.63;;
35803;SDS011;21924;51.934;7.414;2024-01-11T10:24:28;45.87;;;19.23;;
35803;SDS011;21924;51.934;7.414;2024-01-11T10:27:13;37.90;;;17.77;;
35803;SDS011;21924;51.934;7.414;2024-01-11T10:29:58;43.80;;;21.33;;
35803;SDS011;21924;51.934;7.414;2024-01-11T10:32:46;44.53;;;19.77;;
35803;SDS011;21924;51.934;7.414;2024-01-11T10:35:57;34.10;;;17.53;;
35803;SDS011;21924;51.934;7.414;2024-01-11T10:38:50;40.07;;;19.30;;
35803;SDS011;21924;51.934;7.414;2024-01-11T10:41:38;33.13;;;18.53;;
35803;SDS011;21924;51.934;7.414;2024-01-11T10:44:36;61.07;;;25.67;;
35803;SDS011;21924;51.934;7.414;2024-01-11T10:47:50;53.93;;;25.33;;
35803;SDS011;21924;51.934;7.414;2024-01-11T10:50:49;43.50;;;19.53;;
35803;SDS011;21924;51.934;7.414;2024-01-11T10:53:44;41.55;;;21.58;;
35803;SDS011;21924;51.934;7.414;2024-01-11T10:56:32;65.87;;;24.77;;
35803;SDS011;21924;51.934;7.414;2024-01-11T10:59:21;47.70;;;22.17;;
35803;SDS011;21924;51.934;7.414;2024-01-11T11:02:18;168.20;;;55.90;;
35803;SDS011;21924;51.934;7.414;2024-01-11T11:05:18;36.57;;;18.53;;
35803;SDS011;21924;51.934;7.414;2024-01-11T11:08:04;44.13;;;22.85;;
35803;SDS011;21924;51.934;7.414;2024-01-11T11:10:59;24.80;;;14.18;;
35803;SDS011;21924;51.934;7.414;2024-01-11T11:13:47;29.67;;;14.33;;
35803;SDS011;21924;51.934;7.414;2024-01-11T11:16:34;51.90;;;24.05;;
35803;SDS011;21924;51.934;7.414;2024-01-11T11:19:19;26.17;;;14.93;;
35803;SDS011;21924;51.934;7.414;2024-01-11T11:22:04;30.10;;;14.95;;
35803;SDS011;21924;51.934;7.414;2024-01-11T11:24:52;29.33;;;12.98;;
35803;SDS011;21924;51.934;7.414;2024-01-11T11:27:49;28.35;;;12.38;;
35803;SDS011;21924;51.934;7.414;2024-01-11T11:30:36;23.48;;;11.60;;
35803;SDS011;21924;51.934;7.414;2024-01-11T11:33:24;22.67;;;11.90;;
35803;SDS011;21924;51.934;7.414;2024-01-11T11:36:11;27.48;;;14.15;;
35803;SDS011;21924;51.934;7.414;2024-01-11T11:38:59;20.10;;;12.10;;
35803;SDS011;21924;51.934;7.414;2024-01-11T11:41:45;22.00;;;12.27;;
35803;SDS011;21924;51.934;7.414;2024-01-11T11:44:32;24.88;;;11.95;;
35803;SDS011;21924;51.934;7.414;2024-01-11T11:47:35;21.00;;;10.38;;
35803;SDS011;21924;51.934;7.414;2024-01-11T11:51:00;30.40;;;13.13;;
35803;SDS011;21924;51.934;7.414;2024-01-11T11:53:51;29.90;;;11.75;;
35803;SDS011;21924;51.934;7.414;2024-01-11T11:56:36;22.50;;;11.68;;
35803;SDS011;21924;51.934;7.414;2024-01-11T12:02:24;31.23;;;11.73;;
35803;SDS011;21924;51.934;7.414;2024-01-11T12:05:28;22.65;;;11.75;;
35803;SDS011;21924;51.934;7.414;2024-01-11T12:08:52;22.80;;;11.13;;
35803;SDS011;21924;51.934;7.414;2024-01-11T12:11:39;20.98;;;11.60;;
35803;SDS011;21924;51.934;7.414;2024-01-11T12:18:49;22.00;;;11.15;;
35803;SDS011;21924;51.934;7.414;2024-01-11T12:21:43;23.17;;;11.88;;
35803;SDS011;21924;51.934;7.414;2024-01-11T12:24:46;25.75;;;11.93;;
35803;SDS011;21924;51.934;7.414;2024-01-11T12:27:34;24.58;;;10.73;;
35803;SDS011;21924;51.934;7.414;2024-01-11T12:30:23;20.02;;;10.85;;
35803;SDS011;21924;51.934;7.414;2024-01-11T12:33:27;22.55;;;10.52;;
35803;SDS011;21924;51.934;7.414;2024-01-11T12:40:36;21.58;;;10.07;;
35803;SDS011;21924;51.934;7.414;2024-01-11T12:43:27;23.25;;;11.18;;
35803;SDS011;21924;51.934;7.414;2024-01-11T12:46:11;19.85;;;10.40;;
35803;SDS011;21924;51.934;7.414;2024-01-11T12:49:01;18.83;;;9.75;;
35803;SDS011;21924;51.934;7.414;2024-01-11T12:51:52;17.08;;;9.98;;
35803;SDS011;21924;51.934;7.414;2024-01-11T12:54:37;18.92;;;11.23;;
35803;SDS011;21924;51.934;7.414;2024-01-11T12:57:21;17.55;;;9.90;;
35803;SDS011;21924;51.934;7.414;2024-01-11T13:00:09;15.18;;;8.07;;
35803;SDS011;21924;51.934;7.414;2024-01-11T13:02:55;17.33;;;9.40;;
35803;SDS011;21924;51.934;7.414;2024-01-11T13:05:39;28.75;;;12.57;;
35803;SDS011;21924;51.934;7.414;2024-01-11T13:08:27;26.35;;;11.45;;
35803;SDS011;21924;51.934;7.414;2024-01-11T13:11:12;28.42;;;16.55;;
35803;SDS011;21924;51.934;7.414;2024-01-11T13:14:00;16.88;;;9.23;;
35803;SDS011;21924;51.934;7.414;2024-01-11T13:16:48;14.85;;;8.45;;
35803;SDS011;21924;51.934;7.414;2024-01-11T13:19:33;20.67;;;9.50;;
35803;SDS011;21924;51.934;7.414;2024-01-11T13:22:17;17.17;;;9.90;;
35803;SDS011;21924;51.934;7.414;2024-01-11T13:25:02;39.55;;;17.67;;
35803;SDS011;21924;51.934;7.414;2024-01-11T13:27:48;28.17;;;14.20;;
35803;SDS011;21924;51.934;7.414;2024-01-11T13:30:32;41.00;;;19.95;;
35803;SDS011;21924;51.934;7.414;2024-01-11T13:33:17;22.33;;;11.48;;
35803;SDS011;21924;51.934;7.414;2024-01-11T13:36:04;15.43;;;10.02;;
35803;SDS011;21924;51.934;7.414;2024-01-11T13:38:49;15.85;;;8.70;;
35803;SDS011;21924;51.934;7.414;2024-01-11T13:41:41;36.97;;;13.38;;
35803;SDS011;21924;51.934;7.414;2024-01-11T13:44:25;26.05;;;12.10;;
35803;SDS011;21924;51.934;7.414;2024-01-11T13:47:13;13.68;;;7.78;;
35803;SDS011;21924;51.934;7.414;2024-01-11T13:49:57;19.08;;;10.10;;
35803;SDS011;21924;51.934;7.414;2024-01-11T13:52:43;13.10;;;7.65;;
35803;SDS011;21924;51.934;7.414;2024-01-11T13:55:31;16.02;;;8.20;;
35803;SDS011;21924;51.934;7.414;2024-01-11T13:58:28;13.68;;;8.18;;
35803;SDS011;21924;51.934;7.414;2024-01-11T14:01:13;15.75;;;6.95;;
35803;SDS011;21924;51.934;7.414;2024-01-11T14:03:57;17.38;;;7.40;;
35803;SDS011;21924;51.934;7.414;2024-01-11T14:06:42;9.95;;;6.70;;
35803;SDS011;21924;51.934;7.414;2024-01-11T14:09:26;12.82;;;7.10;;
35803;SDS011;21924;51.934;7.414;2024-01-11T14:12:11;12.98;;;7.90;;
35803;SDS011;21924;51.934;7.414;2024-01-11T14:14:58;14.20;;;7.68;;
35803;SDS011;21924;51.934;7.414;2024-01-11T14:17:48;11.65;;;6.50;;
35803;SDS011;21924;51.934;7.414;2024-01-11T14:20:33;16.90;;;6.70;;
35803;SDS011;21924;51.934;7.414;2024-01-11T14:23:17;11.45;;;7.75;;
35803;SDS011;21924;51.934;7.414;2024-01-11T14:26:02;10.85;;;7.15;;
35803;SDS011;21924;51.934;7.414;2024-01-11T14:28:46;11.95;;;7.25;;
35803;SDS011;21924;51.934;7.414;2024-01-11T14:31:30;12.70;;;8.05;;
35803;SDS011;21924;51.934;7.414;2024-01-11T14:34:15;14.75;;;8.07;;
35803;SDS011;21924;51.934;7.414;2024-01-11T14:36:59;16.40;;;9.07;;
35803;SDS011;21924;51.934;7.414;2024-01-11T14:39:44;14.70;;;7.93;;
35803;SDS011;21924;51.934;7.414;2024-01-11T14:42:30;12.80;;;7.25;;
35803;SDS011;21924;51.934;7.414;2024-01-11T14:45:16;14.23;;;7.15;;
35803;SDS011;21924;51.934;7.414;2024-01-11T14:48:02;10.77;;;6.97;;
35803;SDS011;21924;51.934;7.414;2024-01-11T14:50:49;12.80;;;6.97;;
35803;SDS011;21924;51.934;7.414;2024-01-11T14:53:34;16.65;;;9.80;;
35803;SDS011;21924;51.934;7.414;2024-01-11T14:56:26;12.18;;;7.97;;
35803;SDS011;21924;51.934;7.414;2024-01-11T14:59:10;16.55;;;8.30;;
35803;SDS011;21924;51.934;7.414;2024-01-11T15:01:54;17.48;;;8.85;;
35803;SDS011;21924;51.934;7.414;2024-01-11T15:04:39;16.85;;;8.52;;
35803;SDS011;21924;51.934;7.414;2024-01-11T15:07:23;12.93;;;7.90;;
35803;SDS011;21924;51.934;7.414;2024-01-11T15:10:16;14.00;;;8.65;;
35803;SDS011;21924;51.934;7.414;2024-01-11T15:13:01;10.05;;;7.22;;
35803;SDS011;21924;51.934;7.414;2024-01-11T15:15:48;16.88;;;9.20;;
35803;SDS011;21924;51.934;7.414;2024-01-11T15:18:33;14.85;;;8.38;;
35803;SDS011;21924;51.934;7.414;2024-01-11T15:21:18;23.10;;;9.27;;
35803;SDS011;21924;51.934;7.414;2024-01-11T15:24:03;17.08;;;9.82;;
35803;SDS011;21924;51.934;7.414;2024-01-11T15:26:47;17.35;;;9.63;;
35803;SDS011;21924;51.934;7.414;2024-01-11T15:29:31;17.65;;;10.48;;
35803;SDS011;21924;51.934;7.414;2024-01-11T15:32:17;20.98;;;10.45;;
35803;SDS011;21924;51.934;7.414;2024-01-11T15:35:02;18.57;;;10.83;;
35803;SDS011;21924;51.934;7.414;2024-01-11T15:37:47;21.83;;;11.07;;
35803;SDS011;21924;51.934;7.414;2024-01-11T15:40:32;17.25;;;9.38;;
35803;SDS011;21924;51.934;7.414;2024-01-11T15:43:16;19.27;;;9.70;;
35803;SDS011;21924;51.934;7.414;2024-01-11T15:46:01;15.52;;;8.85;;
35803;SDS011;21924;51.934;7.414;2024-01-11T15:48:45;19.08;;;9.75;;
35803;SDS011;21924;51.934;7.414;2024-01-11T15:51:29;14.65;;;8.48;;
35803;SDS011;21924;51.934;7.414;2024-01-11T15:54:19;17.45;;;8.48;;
35803;SDS011;21924;51.934;7.414;2024-01-11T15:57:08;15.55;;;9.63;;
35803;SDS011;21924;51.934;7.414;2024-01-11T15:59:55;19.10;;;8.50;;
35803;SDS011;21924;51.934;7.414;2024-01-11T16:02:39;14.88;;;8.77;;
35803;SDS011;21924;51.934;7.414;2024-01-11T16:08:49;15.02;;;9.05;;
35803;SDS011;21924;51.934;7.414;2024-01-11T16:11:37;21.48;;;10.88;;
35803;SDS011;21924;51.934;7.414;2024-01-11T16:14:44;17.60;;;9.05;;
35803;SDS011;21924;51.934;7.414;2024-01-11T16:17:28;21.30;;;11.38;;
35803;SDS011;21924;51.934;7.414;2024-01-11T16:20:13;16.45;;;9.88;;
35803;SDS011;21924;51.934;7.414;2024-01-11T16:22:57;19.58;;;9.05;;
35803;SDS011;21924;51.934;7.414;2024-01-11T16:25:42;22.45;;;10.38;;
35803;SDS011;21924;51.934;7.414;2024-01-11T16:28:26;22.77;;;9.75;;
35803;SDS011;21924;51.934;7.414;2024-01-11T16:31:10;19.75;;;11.00;;
35803;SDS011;21924;51.934;7.414;2024-01-11T16:33:58;18.90;;;10.38;;
35803;SDS011;21924;51.934;7.414;2024-01-11T16:37:48;19.17;;;9.75;;
35803;SDS011;21924;51.934;7.414;2024-01-11T16:44:58;24.10;;;11.48;;
35803;SDS011;21924;51.934;7.414;2024-01-11T16:47:45;21.33;;;10.23;;
35803;SDS011;21924;51.934;7.414;2024-01-11T16:50:56;32.70;;;14.60;;
35803;SDS011;21924;51.934;7.414;2024-01-11T16:54:12;19.40;;;11.45;;
35803;SDS011;21924;51.934;7.414;2024-01-11T16:56:57;26.27;;;12.05;;
35803;SDS011;21924;51.934;7.414;2024-01-11T16:59:44;26.95;;;13.88;;
35803;SDS011;21924;51.934;7.414;2024-01-11T17:02:28;29.08;;;13.00;;
35803;SDS011;21924;51.934;7.414;2024-01-11T17:05:13;31.90;;;16.10;;
35803;SDS011;21924;51.934;7.414;2024-01-11T17:07:58;182.50;;;65.15;;
35803;SDS011;21924;51.934;7.414;2024-01-11T17:10:43;221.32;;;79.68;;
35803;SDS011;21924;51.934;7.414;2024-01-11T17:13:37;116.90;;;48.67;;
35803;SDS011;21924;51.934;7.414;2024-01-11T17:16:21;75.82;;;34.65;;
35803;SDS011;21924;51.934;7.414;2024-01-11T17:19:06;47.38;;;23.10;;
35803;SDS011;21924;51.934;7.414;2024-01-11T17:25:31;36.70;;;17.17;;
35803;SDS011;21924;51.934;7.414;2024-01-11T17:28:17;37.63;;;19.88;;
35803;SDS011;21924;51.934;7.414;2024-01-11T17:31:01;40.53;;;18.90;;
35803;SDS011;21924;51.934;7.414;2024-01-11T17:33:45;42.53;;;19.15;;
35803;SDS011;21924;51.934;7.414;2024-01-11T17:36:55;34.80;;;15.85;;
35803;SDS011;21924;51.934;7.414;2024-01-11T17:43:07;40.97;;;20.55;;
35803;SDS011;21924;51.934;7.414;2024-01-11T17:45:52;60.72;;;23.92;;
35803;SDS011;21924;51.934;7.414;2024-01-11T17:48:36;56.00;;;23.33;;
35803;SDS011;21924;51.934;7.414;2024-01-11T17:51:30;47.45;;;24.08;;
35803;SDS011;21924;51.934;7.414;2024-01-11T17:54:31;44.30;;;19.13;;
35803;SDS011;21924;51.934;7.414;2024-01-11T17:57:24;54.53;;;27.35;;
35803;SDS011;21924;51.934;7.414;2024-01-11T18:11:33;42.17;;;19.95;;
35803;SDS011;21924;51.934;7.414;2024-01-11T18:14:32;40.03;;;20.00;;
35803;SDS011;21924;51.934;7.414;2024-01-11T18:17:17;39.28;;;18.20;;
35803;SDS011;21924;51.934;7.414;2024-01-11T18:20:26;42.72;;;19.60;;
35803;SDS011;21924;51.934;7.414;2024-01-11T18:23:10;52.00;;;23.50;;
35803;SDS011;21924;51.934;7.414;2024-01-11T18:26:06;44.83;;;22.60;;
35803;SDS011;21924;51.934;7.414;2024-01-11T18:28:54;46.30;;;21.02;;
35803;SDS011;21924;51.934;7.414;2024-01-11T18:31:40;41.35;;;19.10;;
35803;SDS011;21924;51.934;7.414;2024-01-11T18:34:24;45.85;;;20.15;;
35803;SDS011;21924;51.934;7.414;2024-01-11T18:37:24;45.15;;;18.20;;
35803;SDS011;21924;51.934;7.414;2024-01-11T18:40:11;50.33;;;23.13;;
35803;SDS011;21924;51.934;7.414;2024-01-11T18:42:57;49.88;;;22.13;;
35803;SDS011;21924;51.934;7.414;2024-01-11T18:45:43;44.90;;;19.95;;
35803;SDS011;21924;51.934;7.414;2024-01-11T18:48:34;38.90;;;18.60;;
35803;SDS011;21924;51.934;7.414;2024-01-11T18:51:20;42.70;;;20.27;;
35803;SDS011;21924;51.934;7.414;2024-01-11T19:00:07;45.97;;;18.42;;
35803;SDS011;21924;51.934;7.414;2024-01-11T19:05:58;48.40;;;22.63;;
35803;SDS011;21924;51.934;7.414;2024-01-11T19:08:55;46.15;;;21.30;;
35803;SDS011;21924;51.934;7.414;2024-01-11T19:12:37;43.72;;;19.95;;
35803;SDS011;21924;51.934;7.414;2024-01-11T19:15:21;44.70;;;18.63;;
35803;SDS011;21924;51.934;7.414;2024-01-11T19:18:06;48.00;;;19.50;;
35803;SDS011;21924;51.934;7.414;2024-01-11T19:20:52;40.10;;;19.38;;
35803;SDS011;21924;51.934;7.414;2024-01-11T19:23:37;46.38;;;21.63;;
35803;SDS011;21924;51.934;7.414;2024-01-11T19:26:23;35.55;;;17.38;;
35803;SDS011;21924;51.934;7.414;2024-01-11T19:29:10;38.35;;;17.08;;
35803;SDS011;21924;51.934;7.414;2024-01-11T19:31:54;39.90;;;17.55;;
35803;SDS011;21924;51.934;7.414;2024-01-11T19:37:48;37.85;;;21.85;;
35803;SDS011;21924;51.934;7.414;2024-01-11T19:40:32;45.88;;;22.23;;
35803;SDS011;21924;51.934;7.414;2024-01-11T19:43:17;49.90;;;23.80;;
35803;SDS011;21924;51.934;7.414;2024-01-11T19:46:01;47.35;;;21.02;;
35803;SDS011;21924;51.934;7.414;2024-01-11T19:48:47;48.60;;;23.75;;
35803;SDS011;21924;51.934;7.414;2024-01-11T19:51:32;47.72;;;20.73;;
35803;SDS011;21924;51.934;7.414;2024-01-11T19:54:17;51.50;;;22.77;;
35803;SDS011;21924;51.934;7.414;2024-01-11T19:57:02;47.15;;;20.70;;
35803;SDS011;21924;51.934;7.414;2024-01-11T19:59:46;47.42;;;19.98;;
35803;SDS011;21924;51.934;7.414;2024-01-11T20:02:32;47.53;;;21.65;;
35803;SDS011;21924;51.934;7.414;2024-01-11T20:05:16;44.25;;;20.95;;
35803;SDS011;21924;51.934;7.414;2024-01-11T20:08:01;54.03;;;23.63;;
35803;SDS011;21924;51.934;7.414;2024-01-11T20:10:48;51.47;;;23.13;;
35803;SDS011;21924;51.934;7.414;2024-01-11T20:13:33;59.75;;;27.65;;
35803;SDS011;21924;51.934;7.414;2024-01-11T20:16:17;46.00;;;22.13;;
35803;SDS011;21924;51.934;7.414;2024-01-11T20:19:01;42.60;;;20.75;;
35803;SDS011;21924;51.934;7.414;2024-01-11T20:21:46;39.13;;;20.52;;
35803;SDS011;21924;51.934;7.414;2024-01-11T20:24:33;43.28;;;20.48;;
35803;SDS011;21924;51.934;7.414;2024-01-11T20:27:18;51.47;;;22.35;;
35803;SDS011;21924;51.934;7.414;2024-01-11T20:30:03;57.25;;;25.48;;
35803;SDS011;21924;51.934;7.414;2024-01-11T20:32:48;55.95;;;25.80;;
35803;SDS011;21924;51.934;7.414;2024-01-11T20:35:36;58.13;;;26.75;;
35803;SDS011;21924;51.934;7.414;2024-01-11T20:41:43;50.37;;;22.40;;
35803;SDS011;21924;51.934;7.414;2024-01-11T20:44:29;60.87;;;28.30;;
35803;SDS011;21924;51.934;7.414;2024-01-11T20:47:13;51.38;;;22.60;;
35803;SDS011;21924;51.934;7.414;2024-01-11T20:49:58;47.10;;;21.35;;
35803;SDS011;21924;51.934;7.414;2024-01-11T20:52:42;55.53;;;24.67;;
35803;SDS011;21924;51.934;7.414;2024-01-11T20:55:28;37.30;;;18.45;;
35803;SDS011;21924;51.934;7.414;2024-01-11T20:58:12;40.95;;;21.92;;
35803;SDS011;21924;51.934;7.414;2024-01-11T21:00:56;48.80;;;20.38;;
35803;SDS011;21924;51.934;7.414;2024-01-11T21:03:41;43.78;;;20.33;;
35803;SDS011;21924;51.934;7.414;2024-01-11T21:06:25;47.42;;;20.50;;
35803;SDS011;21924;51.934;7.414;2024-01-11T21:09:10;58.47;;;20.42;;
35803;SDS011;21924;51.934;7.414;2024-01-11T21:11:54;47.00;;;18.52;;
35803;SDS011;21924;51.934;7.414;2024-01-11T21:14:39;45.63;;;18.48;;
35803;SDS011;21924;51.934;7.414;2024-01-11T21:17:25;38.72;;;18.70;;
35803;SDS011;21924;51.934;7.414;2024-01-11T21:20:09;45.15;;;19.60;;
35803;SDS011;21924;51.934;7.414;2024-01-11T21:22:53;39.63;;;16.83;;
35803;SDS011;21924;51.934;7.414;2024-01-11T21:25:37;42.85;;;19.23;;
35803;SDS011;21924;51.934;7.414;2024-01-11T21:28:22;45.20;;;18.05;;
35803;SDS011;21924;51.934;7.414;2024-01-11T21:31:06;43.22;;;17.02;;
35803;SDS011;21924;51.934;7.414;2024-01-11T21:33:51;36.80;;;17.58;;
35803;SDS011;21924;51.934;7.414;2024-01-11T21:36:36;45.20;;;17.88;;
35803;SDS011;21924;51.934;7.414;2024-01-11T21:39:20;53.03;;;19.20;;
35803;SDS011;21924;51.934;7.414;2024-01-11T21:42:04;41.08;;;18.50;;
35803;SDS011;21924;51.934;7.414;2024-01-11T21:44:49;45.28;;;18.10;;
35803;SDS011;21924;51.934;7.414;2024-01-11T21:47:53;56.93;;;18.17;;
35803;SDS011;21924;51.934;7.414;2024-01-11T21:50:37;44.83;;;19.10;;
35803;SDS011;21924;51.934;7.414;2024-01-11T21:53:22;46.55;;;19.27;;
35803;SDS011;21924;51.934;7.414;2024-01-11T21:56:09;50.97;;;18.23;;
35803;SDS011;21924;51.934;7.414;2024-01-11T21:58:55;48.50;;;19.27;;
35803;SDS011;21924;51.934;7.414;2024-01-11T22:01:48;50.67;;;20.67;;
35803;SDS011;21924;51.934;7.414;2024-01-11T22:05:00;47.45;;;17.35;;